sensor_id;sensor_type;location;lat;lon;timestamp;P1;durP1;ratioP1;P2;durP2;ratioP2
67053;SDS011;53960;51.826;5.850;2024-03-23T00:53:38;9.23;;;2.20;;
67053;SDS011;53960;51.826;5.850;2024-03-23T00:56:04;8.80;;;1.80;;
67053;SDS011;53960;51.826;5.850;2024-03-23T00:58:30;13.10;;;2.50;;
67053;SDS011;53960;51.826;5.850;2024-03-23T01:00:55;7.65;;;2.03;;
67053;SDS011;53960;51.826;5.850;2024-03-23T01:03:21;12.13;;;2.50;;
67053;SDS011;53960;51.826;5.850;2024-03-23T01:05:46;9.03;;;1.97;;
67053;SDS011;53960;51.826;5.850;2024-03-23T01:08:11;9.50;;;1.93;;
67053;SDS011;53960;51.826;5.850;2024-03-23T01:10:37;13.07;;;2.60;;
67053;SDS011;53960;51.826;5.850;2024-03-23T01:13:02;11.70;;;2.27;;
67053;SDS011;53960;51.826;5.850;2024-03-23T01:15:28;9.77;;;1.90;;
67053;SDS011;53960;51.826;5.850;2024-03-23T01:17:53;11.27;;;2.00;;
67053;SDS011;53960;51.826;5.850;2024-03-23T01:20:18;9.43;;;2.30;;
67053;SDS011;53960;51.826;5.850;2024-03-23T01:22:44;9.53;;;2.37;;
67053;SDS011;53960;51.826;5.850;2024-03-23T01:25:09;10.77;;;2.42;;
67053;SDS011;53960;51.826;5.850;2024-03-23T01:27:34;8.97;;;2.30;;
67053;SDS011;53960;51.826;5.850;2024-03-23T01:30:00;9.63;;;2.63;;
67053;SDS011;53960;51.826;5.850;2024-03-23T01:32:25;12.50;;;2.60;;
67053;SDS011;53960;51.826;5.850;2024-03-23T01:34:50;14.27;;;2.40;;
67053;SDS011;53960;51.826;5.850;2024-03-23T01:37:16;11.50;;;2.57;;
67053;SDS011;53960;51.826;5.850;2024-03-23T01:39:41;11.70;;;1.90;;
67053;SDS011;53960;51.826;5.850;2024-03-23T01:42:07;9.63;;;2.17;;
67053;SDS011;53960;51.826;5.850;2024-03-23T01:44:32;13.40;;;2.00;;
67053;SDS011;53960;51.826;5.850;2024-03-23T01:46:57;9.70;;;2.27;;
67053;SDS011;53960;51.826;5.850;2024-03-23T01:49:23;11.80;;;2.67;;
67053;SDS011;53960;51.826;5.850;2024-03-23T01:51:49;10.55;;;2.10;;
67053;SDS011;53960;51.826;5.850;2024-03-23T01:54:15;10.38;;;2.58;;
67053;SDS011;53960;51.826;5.850;2024-03-23T01:56:40;10.20;;;2.23;;
67053;SDS011;53960;51.826;5.850;2024-03-23T01:59:06;11.15;;;2.80;;
67053;SDS011;53960;51.826;5.850;2024-03-23T02:01:32;10.17;;;2.73;;
67053;SDS011;53960;51.826;5.850;2024-03-23T02:04:00;12.98;;;2.40;;
67053;SDS011;53960;51.826;5.850;2024-03-23T02:06:26;12.93;;;2.50;;
67053;SDS011;53960;51.826;5.850;2024-03-23T02:08:52;8.77;;;2.45;;
67053;SDS011;53960;51.826;5.850;2024-03-23T02:11:19;13.15;;;2.63;;
67053;SDS011;53960;51.826;5.850;2024-03-23T02:13:44;12.57;;;3.00;;
67053;SDS011;53960;51.826;5.850;2024-03-23T02:16:10;11.57;;;2.63;;
67053;SDS011;53960;51.826;5.850;2024-03-23T02:18:35;9.40;;;2.23;;
67053;SDS011;53960;51.826;5.850;2024-03-23T02:21:01;11.00;;;2.70;;
67053;SDS011;53960;51.826;5.850;2024-03-23T02:23:26;9.93;;;2.80;;
67053;SDS011;53960;51.826;5.850;2024-03-23T02:25:52;12.63;;;3.10;;
67053;SDS011;53960;51.826;5.850;2024-03-23T02:28:20;14.60;;;3.53;;
67053;SDS011;53960;51.826;5.850;2024-03-23T02:30:47;13.65;;;3.22;;
67053;SDS011;53960;51.826;5.850;2024-03-23T02:33:13;10.98;;;2.78;;
67053;SDS011;53960;51.826;5.850;2024-03-23T02:35:39;13.47;;;3.50;;
67053;SDS011;53960;51.826;5.850;2024-03-23T02:38:04;10.73;;;3.10;;
67053;SDS011;53960;51.826;5.850;2024-03-23T02:40:29;12.13;;;3.20;;
67053;SDS011;53960;51.826;5.850;2024-03-23T02:42:55;12.90;;;4.07;;
67053;SDS011;53960;51.826;5.850;2024-03-23T02:45:20;10.82;;;3.47;;
67053;SDS011;53960;51.826;5.850;2024-03-23T02:47:45;12.33;;;3.00;;
67053;SDS011;53960;51.826;5.850;2024-03-23T02:50:11;10.67;;;3.10;;
67053;SDS011;53960;51.826;5.850;2024-03-23T02:52:37;10.55;;;3.47;;
67053;SDS011;53960;51.826;5.850;2024-03-23T02:55:02;13.27;;;3.53;;
67053;SDS011;53960;51.826;5.850;2024-03-23T02:57:28;11.55;;;3.90;;
67053;SDS011;53960;51.826;5.850;2024-03-23T02:59:54;13.83;;;3.33;;
67053;SDS011;53960;51.826;5.850;2024-03-23T03:02:19;11.23;;;3.30;;
67053;SDS011;53960;51.826;5.850;2024-03-23T03:04:45;13.35;;;3.42;;
67053;SDS011;53960;51.826;5.850;2024-03-23T03:07:11;14.98;;;3.80;;
67053;SDS011;53960;51.826;5.850;2024-03-23T03:09:36;16.83;;;3.77;;
67053;SDS011;53960;51.826;5.850;2024-03-23T03:12:04;11.20;;;3.67;;
67053;SDS011;53960;51.826;5.850;2024-03-23T03:14:30;13.93;;;4.22;;
67053;SDS011;53960;51.826;5.850;2024-03-23T03:16:55;15.20;;;4.33;;
67053;SDS011;53960;51.826;5.850;2024-03-23T03:19:21;15.23;;;3.87;;
67053;SDS011;53960;51.826;5.850;2024-03-23T03:21:46;14.57;;;3.77;;
67053;SDS011;53960;51.826;5.850;2024-03-23T03:24:12;12.75;;;3.85;;
67053;SDS011;53960;51.826;5.850;2024-03-23T03:26:38;13.47;;;3.93;;
67053;SDS011;53960;51.826;5.850;2024-03-23T03:29:03;15.37;;;3.93;;
67053;SDS011;53960;51.826;5.850;2024-03-23T03:31:29;12.85;;;3.80;;
67053;SDS011;53960;51.826;5.850;2024-03-23T03:33:54;13.00;;;3.80;;
67053;SDS011;53960;51.826;5.850;2024-03-23T03:36:20;16.13;;;4.00;;
67053;SDS011;53960;51.826;5.850;2024-03-23T03:38:46;12.10;;;3.73;;
67053;SDS011;53960;51.826;5.850;2024-03-23T03:41:11;15.43;;;3.67;;
67053;SDS011;53960;51.826;5.850;2024-03-23T03:43:36;20.13;;;4.00;;
67053;SDS011;53960;51.826;5.850;2024-03-23T03:46:03;14.53;;;3.73;;
67053;SDS011;53960;51.826;5.850;2024-03-23T03:48:28;12.30;;;3.38;;
67053;SDS011;53960;51.826;5.850;2024-03-23T03:50:54;15.70;;;3.70;;
67053;SDS011;53960;51.826;5.850;2024-03-23T03:53:19;12.17;;;3.63;;
67053;SDS011;53960;51.826;5.850;2024-03-23T03:55:45;13.95;;;3.55;;
67053;SDS011;53960;51.826;5.850;2024-03-23T03:58:10;14.33;;;3.13;;
67053;SDS011;53960;51.826;5.850;2024-03-23T04:00:36;11.20;;;3.60;;
67053;SDS011;53960;51.826;5.850;2024-03-23T04:03:01;12.00;;;3.43;;
67053;SDS011;53960;51.826;5.850;2024-03-23T04:05:27;15.10;;;3.47;;
67053;SDS011;53960;51.826;5.850;2024-03-23T04:07:53;16.13;;;3.63;;
67053;SDS011;53960;51.826;5.850;2024-03-23T04:10:19;11.23;;;3.42;;
67053;SDS011;53960;51.826;5.850;2024-03-23T04:12:45;14.07;;;2.83;;
67053;SDS011;53960;51.826;5.850;2024-03-23T04:15:10;13.47;;;3.70;;
67053;SDS011;53960;51.826;5.850;2024-03-23T04:17:36;9.80;;;2.73;;
67053;SDS011;53960;51.826;5.850;2024-03-23T04:20:01;14.43;;;3.83;;
67053;SDS011;53960;51.826;5.850;2024-03-23T04:22:30;13.07;;;3.05;;
67053;SDS011;53960;51.826;5.850;2024-03-23T04:24:56;11.77;;;3.23;;
67053;SDS011;53960;51.826;5.850;2024-03-23T04:27:22;13.77;;;3.45;;
67053;SDS011;53960;51.826;5.850;2024-03-23T04:29:51;10.85;;;3.35;;
67053;SDS011;53960;51.826;5.850;2024-03-23T04:32:18;20.17;;;2.87;;
67053;SDS011;53960;51.826;5.850;2024-03-23T04:34:44;16.13;;;2.95;;
67053;SDS011;53960;51.826;5.850;2024-03-23T04:37:10;12.70;;;2.80;;
67053;SDS011;53960;51.826;5.850;2024-03-23T04:39:36;13.20;;;3.08;;
67053;SDS011;53960;51.826;5.850;2024-03-23T04:42:02;14.37;;;3.30;;
67053;SDS011;53960;51.826;5.850;2024-03-23T04:44:29;10.93;;;3.03;;
67053;SDS011;53960;51.826;5.850;2024-03-23T04:46:54;15.35;;;4.07;;
67053;SDS011;53960;51.826;5.850;2024-03-23T04:49:20;12.83;;;3.07;;
67053;SDS011;53960;51.826;5.850;2024-03-23T04:51:45;14.10;;;3.17;;
67053;SDS011;53960;51.826;5.850;2024-03-23T04:54:11;11.98;;;2.97;;
67053;SDS011;53960;51.826;5.850;2024-03-23T04:56:37;11.85;;;2.90;;
67053;SDS011;53960;51.826;5.850;2024-03-23T04:59:03;13.83;;;3.30;;
67053;SDS011;53960;51.826;5.850;2024-03-23T05:01:30;14.63;;;3.00;;
67053;SDS011;53960;51.826;5.850;2024-03-23T05:03:56;12.93;;;2.83;;
67053;SDS011;53960;51.826;5.850;2024-03-23T05:06:22;13.45;;;3.30;;
67053;SDS011;53960;51.826;5.850;2024-03-23T05:08:47;15.27;;;3.50;;
67053;SDS011;53960;51.826;5.850;2024-03-23T05:11:13;13.30;;;3.60;;
67053;SDS011;53960;51.826;5.850;2024-03-23T05:13:39;13.70;;;3.15;;
67053;SDS011;53960;51.826;5.850;2024-03-23T05:16:04;14.63;;;3.57;;
67053;SDS011;53960;51.826;5.850;2024-03-23T05:18:30;13.80;;;3.50;;
67053;SDS011;53960;51.826;5.850;2024-03-23T05:20:56;9.90;;;3.07;;
67053;SDS011;53960;51.826;5.850;2024-03-23T05:23:22;14.23;;;3.75;;
67053;SDS011;53960;51.826;5.850;2024-03-23T05:25:48;11.23;;;2.50;;
67053;SDS011;53960;51.826;5.850;2024-03-23T05:28:13;9.27;;;2.60;;
67053;SDS011;53960;51.826;5.850;2024-03-23T05:30:39;14.10;;;2.85;;
67053;SDS011;53960;51.826;5.850;2024-03-23T05:33:05;16.60;;;2.73;;
67053;SDS011;53960;51.826;5.850;2024-03-23T05:35:30;12.68;;;2.95;;
67053;SDS011;53960;51.826;5.850;2024-03-23T05:37:57;13.73;;;3.05;;
67053;SDS011;53960;51.826;5.850;2024-03-23T05:40:23;14.20;;;3.10;;
67053;SDS011;53960;51.826;5.850;2024-03-23T05:42:49;12.00;;;2.97;;
67053;SDS011;53960;51.826;5.850;2024-03-23T05:45:18;11.10;;;3.03;;
67053;SDS011;53960;51.826;5.850;2024-03-23T05:47:43;11.15;;;3.03;;
67053;SDS011;53960;51.826;5.850;2024-03-23T05:50:09;14.23;;;3.13;;
67053;SDS011;53960;51.826;5.850;2024-03-23T05:52:37;12.13;;;2.77;;
67053;SDS011;53960;51.826;5.850;2024-03-23T05:55:03;10.85;;;2.97;;
67053;SDS011;53960;51.826;5.850;2024-03-23T05:57:29;11.27;;;2.67;;
67053;SDS011;53960;51.826;5.850;2024-03-23T05:59:55;10.53;;;2.50;;
67053;SDS011;53960;51.826;5.850;2024-03-23T06:02:20;13.07;;;2.70;;
67053;SDS011;53960;51.826;5.850;2024-03-23T06:04:46;10.80;;;2.55;;
67053;SDS011;53960;51.826;5.850;2024-03-23T06:07:11;11.03;;;2.40;;
67053;SDS011;53960;51.826;5.850;2024-03-23T06:09:39;11.85;;;2.78;;
67053;SDS011;53960;51.826;5.850;2024-03-23T06:12:05;18.80;;;2.60;;
67053;SDS011;53960;51.826;5.850;2024-03-23T06:14:31;16.50;;;3.00;;
67053;SDS011;53960;51.826;5.850;2024-03-23T06:16:58;13.00;;;2.30;;
67053;SDS011;53960;51.826;5.850;2024-03-23T06:19:24;11.65;;;2.65;;
67053;SDS011;53960;51.826;5.850;2024-03-23T06:21:52;12.80;;;2.63;;
67053;SDS011;53960;51.826;5.850;2024-03-23T06:24:17;11.55;;;2.50;;
67053;SDS011;53960;51.826;5.850;2024-03-23T06:26:43;12.93;;;2.53;;
67053;SDS011;53960;51.826;5.850;2024-03-23T06:29:08;14.40;;;2.63;;
67053;SDS011;53960;51.826;5.850;2024-03-23T06:31:34;11.23;;;2.38;;
67053;SDS011;53960;51.826;5.850;2024-03-23T06:33:59;12.87;;;2.77;;
67053;SDS011;53960;51.826;5.850;2024-03-23T06:36:26;12.90;;;3.00;;
67053;SDS011;53960;51.826;5.850;2024-03-23T06:38:52;11.27;;;2.47;;
67053;SDS011;53960;51.826;5.850;2024-03-23T06:41:17;11.67;;;2.40;;
67053;SDS011;53960;51.826;5.850;2024-03-23T06:43:43;13.53;;;3.47;;
67053;SDS011;53960;51.826;5.850;2024-03-23T06:46:09;8.60;;;2.43;;
67053;SDS011;53960;51.826;5.850;2024-03-23T06:48:34;8.13;;;2.30;;
67053;SDS011;53960;51.826;5.850;2024-03-23T06:50:59;12.53;;;2.30;;
67053;SDS011;53960;51.826;5.850;2024-03-23T06:53:25;9.17;;;2.10;;
67053;SDS011;53960;51.826;5.850;2024-03-23T06:55:51;12.03;;;2.83;;
67053;SDS011;53960;51.826;5.850;2024-03-23T06:58:18;11.70;;;2.70;;
67053;SDS011;53960;51.826;5.850;2024-03-23T07:00:47;16.85;;;2.35;;
67053;SDS011;53960;51.826;5.850;2024-03-23T07:03:13;13.30;;;2.57;;
67053;SDS011;53960;51.826;5.850;2024-03-23T07:05:38;11.00;;;2.95;;
67053;SDS011;53960;51.826;5.850;2024-03-23T07:08:04;13.53;;;2.77;;
67053;SDS011;53960;51.826;5.850;2024-03-23T07:10:30;9.27;;;2.40;;
67053;SDS011;53960;51.826;5.850;2024-03-23T07:12:55;12.67;;;2.47;;
67053;SDS011;53960;51.826;5.850;2024-03-23T07:15:21;13.27;;;2.77;;
67053;SDS011;53960;51.826;5.850;2024-03-23T07:17:47;9.30;;;2.20;;
67053;SDS011;53960;51.826;5.850;2024-03-23T07:20:12;9.87;;;1.73;;
67053;SDS011;53960;51.826;5.850;2024-03-23T07:22:38;10.23;;;2.38;;
67053;SDS011;53960;51.826;5.850;2024-03-23T07:25:04;9.77;;;2.80;;
67053;SDS011;53960;51.826;5.850;2024-03-23T07:27:30;9.68;;;2.15;;
67053;SDS011;53960;51.826;5.850;2024-03-23T07:29:56;9.03;;;2.40;;
67053;SDS011;53960;51.826;5.850;2024-03-23T07:32:21;12.80;;;2.33;;
67053;SDS011;53960;51.826;5.850;2024-03-23T07:34:46;11.93;;;2.42;;
67053;SDS011;53960;51.826;5.850;2024-03-23T07:37:12;14.90;;;2.73;;
67053;SDS011;53960;51.826;5.850;2024-03-23T07:39:38;13.77;;;2.90;;
67053;SDS011;53960;51.826;5.850;2024-03-23T07:42:04;12.55;;;2.92;;
67053;SDS011;53960;51.826;5.850;2024-03-23T07:44:30;11.05;;;2.50;;
67053;SDS011;53960;51.826;5.850;2024-03-23T07:46:55;12.93;;;2.63;;
67053;SDS011;53960;51.826;5.850;2024-03-23T07:49:21;14.10;;;2.50;;
67053;SDS011;53960;51.826;5.850;2024-03-23T07:51:46;13.80;;;2.20;;
67053;SDS011;53960;51.826;5.850;2024-03-23T07:54:12;11.13;;;2.20;;
67053;SDS011;53960;51.826;5.850;2024-03-23T07:56:37;13.33;;;2.23;;
67053;SDS011;53960;51.826;5.850;2024-03-23T07:59:03;11.87;;;2.60;;
67053;SDS011;53960;51.826;5.850;2024-03-23T08:01:28;9.97;;;2.47;;
67053;SDS011;53960;51.826;5.850;2024-03-23T08:03:54;10.03;;;2.47;;
67053;SDS011;53960;51.826;5.850;2024-03-23T08:06:20;11.87;;;2.57;;
67053;SDS011;53960;51.826;5.850;2024-03-23T08:08:47;9.90;;;2.22;;
67053;SDS011;53960;51.826;5.850;2024-03-23T08:11:15;14.43;;;3.00;;
67053;SDS011;53960;51.826;5.850;2024-03-23T08:13:41;10.63;;;2.07;;
67053;SDS011;53960;51.826;5.850;2024-03-23T08:16:07;10.07;;;1.85;;
67053;SDS011;53960;51.826;5.850;2024-03-23T08:18:36;9.88;;;2.10;;
67053;SDS011;53960;51.826;5.850;2024-03-23T08:21:02;12.47;;;2.90;;
67053;SDS011;53960;51.826;5.850;2024-03-23T08:23:35;10.90;;;2.58;;
67053;SDS011;53960;51.826;5.850;2024-03-23T08:26:06;11.63;;;2.30;;
67053;SDS011;53960;51.826;5.850;2024-03-23T08:28:33;10.00;;;2.47;;
67053;SDS011;53960;51.826;5.850;2024-03-23T08:31:18;11.00;;;2.70;;
67053;SDS011;53960;51.826;5.850;2024-03-23T08:33:43;9.55;;;2.58;;
67053;SDS011;53960;51.826;5.850;2024-03-23T08:36:09;10.17;;;2.40;;
67053;SDS011;53960;51.826;5.850;2024-03-23T08:38:39;10.30;;;2.80;;
67053;SDS011;53960;51.826;5.850;2024-03-23T08:41:09;12.65;;;3.38;;
67053;SDS011;53960;51.826;5.850;2024-03-23T08:43:35;10.98;;;2.63;;
67053;SDS011;53960;51.826;5.850;2024-03-23T08:48:31;9.93;;;2.67;;
67053;SDS011;53960;51.826;5.850;2024-03-23T08:51:03;8.73;;;2.10;;
67053;SDS011;53960;51.826;5.850;2024-03-23T08:53:33;9.18;;;2.83;;
67053;SDS011;53960;51.826;5.850;2024-03-23T08:56:00;10.77;;;2.40;;
67053;SDS011;53960;51.826;5.850;2024-03-23T08:58:26;10.10;;;2.90;;
67053;SDS011;53960;51.826;5.850;2024-03-23T09:00:52;15.93;;;2.40;;
67053;SDS011;53960;51.826;5.850;2024-03-23T09:03:21;12.10;;;2.78;;
67053;SDS011;53960;51.826;5.850;2024-03-23T09:05:49;12.38;;;2.85;;
67053;SDS011;53960;51.826;5.850;2024-03-23T09:08:15;7.82;;;2.40;;
67053;SDS011;53960;51.826;5.850;2024-03-23T09:10:41;9.37;;;2.33;;
67053;SDS011;53960;51.826;5.850;2024-03-23T09:13:07;10.10;;;2.40;;
67053;SDS011;53960;51.826;5.850;2024-03-23T09:15:36;10.43;;;2.70;;
67053;SDS011;53960;51.826;5.850;2024-03-23T09:18:10;10.25;;;2.40;;
67053;SDS011;53960;51.826;5.850;2024-03-23T09:20:35;9.53;;;2.50;;
67053;SDS011;53960;51.826;5.850;2024-03-23T09:23:00;10.47;;;2.60;;
67053;SDS011;53960;51.826;5.850;2024-03-23T09:25:26;9.63;;;2.50;;
67053;SDS011;53960;51.826;5.850;2024-03-23T09:27:51;10.97;;;3.07;;
67053;SDS011;53960;51.826;5.850;2024-03-23T09:30:16;9.13;;;2.50;;
67053;SDS011;53960;51.826;5.850;2024-03-23T09:32:43;7.90;;;2.00;;
67053;SDS011;53960;51.826;5.850;2024-03-23T09:35:09;8.15;;;1.88;;
67053;SDS011;53960;51.826;5.850;2024-03-23T09:37:35;9.32;;;1.70;;
67053;SDS011;53960;51.826;5.850;2024-03-23T09:40:00;7.13;;;1.70;;
67053;SDS011;53960;51.826;5.850;2024-03-23T09:42:26;8.23;;;1.90;;
67053;SDS011;53960;51.826;5.850;2024-03-23T09:44:51;12.07;;;2.10;;
67053;SDS011;53960;51.826;5.850;2024-03-23T09:47:17;8.97;;;1.90;;
67053;SDS011;53960;51.826;5.850;2024-03-23T09:49:43;8.20;;;1.83;;
67053;SDS011;53960;51.826;5.850;2024-03-23T09:52:09;7.27;;;1.47;;
67053;SDS011;53960;51.826;5.850;2024-03-23T09:54:34;7.35;;;1.40;;
67053;SDS011;53960;51.826;5.850;2024-03-23T09:57:00;6.20;;;1.50;;
67053;SDS011;53960;51.826;5.850;2024-03-23T09:59:25;7.07;;;1.42;;
67053;SDS011;53960;51.826;5.850;2024-03-23T10:01:52;6.40;;;1.43;;
67053;SDS011;53960;51.826;5.850;2024-03-23T10:04:37;10.70;;;1.70;;
67053;SDS011;53960;51.826;5.850;2024-03-23T10:07:12;7.55;;;2.03;;
67053;SDS011;53960;51.826;5.850;2024-03-23T10:09:43;6.88;;;1.40;;
67053;SDS011;53960;51.826;5.850;2024-03-23T10:12:12;9.63;;;1.83;;
67053;SDS011;53960;51.826;5.850;2024-03-23T10:14:40;8.60;;;1.67;;
67053;SDS011;53960;51.826;5.850;2024-03-23T10:17:11;8.00;;;2.00;;
67053;SDS011;53960;51.826;5.850;2024-03-23T10:19:46;8.70;;;2.03;;
67053;SDS011;53960;51.826;5.850;2024-03-23T10:22:19;8.33;;;1.80;;
67053;SDS011;53960;51.826;5.850;2024-03-23T10:24:49;12.80;;;2.20;;
67053;SDS011;53960;51.826;5.850;2024-03-23T10:27:15;9.25;;;2.30;;
67053;SDS011;53960;51.826;5.850;2024-03-23T10:29:45;16.20;;;2.13;;
67053;SDS011;53960;51.826;5.850;2024-03-23T10:32:11;10.47;;;2.40;;
67053;SDS011;53960;51.826;5.850;2024-03-23T10:34:38;10.20;;;1.83;;
67053;SDS011;53960;51.826;5.850;2024-03-23T10:37:04;11.23;;;2.03;;
67053;SDS011;53960;51.826;5.850;2024-03-23T10:39:33;8.60;;;1.52;;
67053;SDS011;53960;51.826;5.850;2024-03-23T10:42:03;9.95;;;2.10;;
67053;SDS011;53960;51.826;5.850;2024-03-23T10:44:30;11.13;;;2.00;;
67053;SDS011;53960;51.826;5.850;2024-03-23T10:47:06;7.65;;;1.70;;
67053;SDS011;53960;51.826;5.850;2024-03-23T10:49:32;7.10;;;1.60;;
67053;SDS011;53960;51.826;5.850;2024-03-23T10:51:58;7.90;;;2.03;;
67053;SDS011;53960;51.826;5.850;2024-03-23T10:54:25;9.73;;;1.95;;
67053;SDS011;53960;51.826;5.850;2024-03-23T10:56:52;10.27;;;1.90;;
67053;SDS011;53960;51.826;5.850;2024-03-23T10:59:25;11.52;;;2.10;;
67053;SDS011;53960;51.826;5.850;2024-03-23T11:01:55;10.10;;;1.83;;
67053;SDS011;53960;51.826;5.850;2024-03-23T11:04:30;9.27;;;1.63;;
67053;SDS011;53960;51.826;5.850;2024-03-23T11:07:00;8.20;;;1.40;;
67053;SDS011;53960;51.826;5.850;2024-03-23T11:14:46;4.72;;;1.25;;
67053;SDS011;53960;51.826;5.850;2024-03-23T11:17:17;9.35;;;1.20;;
67053;SDS011;53960;51.826;5.850;2024-03-23T11:19:43;9.88;;;1.77;;
67053;SDS011;53960;51.826;5.850;2024-03-23T11:22:09;6.83;;;1.50;;
67053;SDS011;53960;51.826;5.850;2024-03-23T11:24:34;8.90;;;1.30;;
67053;SDS011;53960;51.826;5.850;2024-03-23T11:27:00;7.53;;;1.40;;
67053;SDS011;53960;51.826;5.850;2024-03-23T11:29:28;7.72;;;1.25;;
67053;SDS011;53960;51.826;5.850;2024-03-23T11:31:55;7.57;;;1.50;;
67053;SDS011;53960;51.826;5.850;2024-03-23T11:34:20;8.27;;;1.57;;
67053;SDS011;53960;51.826;5.850;2024-03-23T11:36:46;7.87;;;1.40;;
67053;SDS011;53960;51.826;5.850;2024-03-23T11:39:13;6.43;;;1.23;;
67053;SDS011;53960;51.826;5.850;2024-03-23T11:41:55;7.95;;;1.65;;
67053;SDS011;53960;51.826;5.850;2024-03-23T11:44:22;9.38;;;1.60;;
67053;SDS011;53960;51.826;5.850;2024-03-23T11:46:51;9.40;;;1.50;;
67053;SDS011;53960;51.826;5.850;2024-03-23T11:51:50;6.72;;;1.17;;
67053;SDS011;53960;51.826;5.850;2024-03-23T11:54:21;11.38;;;1.50;;
67053;SDS011;53960;51.826;5.850;2024-03-23T11:57:00;10.63;;;1.63;;
67053;SDS011;53960;51.826;5.850;2024-03-23T11:59:39;8.30;;;1.37;;
67053;SDS011;53960;51.826;5.850;2024-03-23T12:02:14;8.82;;;1.60;;
67053;SDS011;53960;51.826;5.850;2024-03-23T12:04:43;8.40;;;1.33;;
67053;SDS011;53960;51.826;5.850;2024-03-23T12:07:12;8.50;;;1.30;;
67053;SDS011;53960;51.826;5.850;2024-03-23T12:09:38;3.80;;;0.80;;
67053;SDS011;53960;51.826;5.850;2024-03-23T12:12:05;4.13;;;0.70;;
67053;SDS011;53960;51.826;5.850;2024-03-23T12:14:33;4.55;;;0.70;;
67053;SDS011;53960;51.826;5.850;2024-03-23T12:17:12;5.50;;;1.13;;
67053;SDS011;53960;51.826;5.850;2024-03-23T12:19:38;5.03;;;0.90;;
67053;SDS011;53960;51.826;5.850;2024-03-23T12:22:05;4.47;;;0.73;;
67053;SDS011;53960;51.826;5.850;2024-03-23T12:24:31;9.02;;;1.00;;
67053;SDS011;53960;51.826;5.850;2024-03-23T12:27:04;6.88;;;1.40;;
67053;SDS011;53960;51.826;5.850;2024-03-23T12:29:30;6.03;;;1.00;;
67053;SDS011;53960;51.826;5.850;2024-03-23T12:31:59;9.35;;;1.30;;
67053;SDS011;53960;51.826;5.850;2024-03-23T12:34:25;10.20;;;1.37;;
67053;SDS011;53960;51.826;5.850;2024-03-23T12:36:51;7.97;;;1.38;;
67053;SDS011;53960;51.826;5.850;2024-03-23T12:39:16;6.00;;;1.30;;
67053;SDS011;53960;51.826;5.850;2024-03-23T12:41:41;9.33;;;1.53;;
67053;SDS011;53960;51.826;5.850;2024-03-23T12:44:07;8.55;;;1.40;;
67053;SDS011;53960;51.826;5.850;2024-03-23T12:46:34;7.90;;;1.57;;
67053;SDS011;53960;51.826;5.850;2024-03-23T12:48:59;6.28;;;1.35;;
67053;SDS011;53960;51.826;5.850;2024-03-23T12:51:25;7.03;;;1.80;;
67053;SDS011;53960;51.826;5.850;2024-03-23T12:53:50;8.60;;;1.20;;
67053;SDS011;53960;51.826;5.850;2024-03-23T12:56:15;7.90;;;1.17;;
67053;SDS011;53960;51.826;5.850;2024-03-23T12:58:41;7.87;;;1.20;;
67053;SDS011;53960;51.826;5.850;2024-03-23T13:01:06;8.30;;;1.42;;
67053;SDS011;53960;51.826;5.850;2024-03-23T13:03:32;9.13;;;1.17;;
67053;SDS011;53960;51.826;5.850;2024-03-23T13:05:57;10.27;;;1.47;;
67053;SDS011;53960;51.826;5.850;2024-03-23T13:08:22;10.90;;;1.50;;
67053;SDS011;53960;51.826;5.850;2024-03-23T13:10:51;8.52;;;1.20;;
67053;SDS011;53960;51.826;5.850;2024-03-23T13:13:17;5.87;;;1.10;;
67053;SDS011;53960;51.826;5.850;2024-03-23T13:15:42;6.43;;;1.33;;
67053;SDS011;53960;51.826;5.850;2024-03-23T13:18:07;6.40;;;1.10;;
67053;SDS011;53960;51.826;5.850;2024-03-23T13:20:35;6.80;;;1.20;;
67053;SDS011;53960;51.826;5.850;2024-03-23T13:23:00;6.90;;;1.23;;
67053;SDS011;53960;51.826;5.850;2024-03-23T13:25:26;6.57;;;1.13;;
67053;SDS011;53960;51.826;5.850;2024-03-23T13:27:51;7.40;;;1.20;;
67053;SDS011;53960;51.826;5.850;2024-03-23T13:30:17;6.55;;;1.10;;
67053;SDS011;53960;51.826;5.850;2024-03-23T13:32:42;8.27;;;1.60;;
67053;SDS011;53960;51.826;5.850;2024-03-23T13:35:08;6.73;;;0.83;;
67053;SDS011;53960;51.826;5.850;2024-03-23T13:37:33;6.37;;;0.90;;
67053;SDS011;53960;51.826;5.850;2024-03-23T13:39:59;8.48;;;1.00;;
67053;SDS011;53960;51.826;5.850;2024-03-23T13:42:24;5.60;;;0.90;;
67053;SDS011;53960;51.826;5.850;2024-03-23T13:44:51;8.40;;;0.90;;
67053;SDS011;53960;51.826;5.850;2024-03-23T13:47:16;5.20;;;0.90;;
67053;SDS011;53960;51.826;5.850;2024-03-23T13:49:41;7.33;;;0.97;;
67053;SDS011;53960;51.826;5.850;2024-03-23T13:52:07;7.30;;;1.00;;
67053;SDS011;53960;51.826;5.850;2024-03-23T13:54:33;4.70;;;0.80;;
67053;SDS011;53960;51.826;5.850;2024-03-23T13:56:58;6.47;;;0.90;;
67053;SDS011;53960;51.826;5.850;2024-03-23T13:59:24;8.93;;;0.97;;
67053;SDS011;53960;51.826;5.850;2024-03-23T14:01:49;5.60;;;1.03;;
67053;SDS011;53960;51.826;5.850;2024-03-23T14:04:16;5.50;;;0.93;;
67053;SDS011;53960;51.826;5.850;2024-03-23T14:06:41;8.30;;;1.10;;
67053;SDS011;53960;51.826;5.850;2024-03-23T14:09:07;8.53;;;1.63;;
67053;SDS011;53960;51.826;5.850;2024-03-23T14:11:34;7.70;;;1.53;;
67053;SDS011;53960;51.826;5.850;2024-03-23T14:14:02;5.13;;;0.90;;
67053;SDS011;53960;51.826;5.850;2024-03-23T14:16:29;6.25;;;1.10;;
67053;SDS011;53960;51.826;5.850;2024-03-23T14:18:57;4.90;;;0.98;;
67053;SDS011;53960;51.826;5.850;2024-03-23T14:21:23;7.27;;;1.07;;
67053;SDS011;53960;51.826;5.850;2024-03-23T14:23:48;7.80;;;1.02;;
67053;SDS011;53960;51.826;5.850;2024-03-23T14:26:14;7.80;;;1.10;;
67053;SDS011;53960;51.826;5.850;2024-03-23T14:28:39;6.20;;;0.70;;
67053;SDS011;53960;51.826;5.850;2024-03-23T14:31:05;6.50;;;0.90;;
67053;SDS011;53960;51.826;5.850;2024-03-23T14:33:35;7.25;;;1.48;;
67053;SDS011;53960;51.826;5.850;2024-03-23T14:36:02;5.57;;;1.23;;
67053;SDS011;53960;51.826;5.850;2024-03-23T14:38:28;7.28;;;1.08;;
67053;SDS011;53960;51.826;5.850;2024-03-23T14:40:54;8.23;;;1.10;;
67053;SDS011;53960;51.826;5.850;2024-03-23T14:43:23;8.73;;;1.50;;
67053;SDS011;53960;51.826;5.850;2024-03-23T14:46:05;11.17;;;1.20;;
67053;SDS011;53960;51.826;5.850;2024-03-23T14:48:32;4.60;;;0.90;;
67053;SDS011;53960;51.826;5.850;2024-03-23T14:50:58;6.77;;;1.00;;
67053;SDS011;53960;51.826;5.850;2024-03-23T14:53:25;6.10;;;1.42;;
67053;SDS011;53960;51.826;5.850;2024-03-23T14:55:54;4.32;;;0.80;;
67053;SDS011;53960;51.826;5.850;2024-03-23T14:58:20;7.05;;;1.40;;
67053;SDS011;53960;51.826;5.850;2024-03-23T15:00:45;6.60;;;0.87;;
67053;SDS011;53960;51.826;5.850;2024-03-23T15:03:10;5.87;;;0.90;;
67053;SDS011;53960;51.826;5.850;2024-03-23T15:05:36;7.70;;;1.10;;
67053;SDS011;53960;51.826;5.850;2024-03-23T15:08:02;9.68;;;1.05;;
67053;SDS011;53960;51.826;5.850;2024-03-23T15:10:28;5.00;;;1.02;;
67053;SDS011;53960;51.826;5.850;2024-03-23T15:12:53;9.40;;;1.30;;
67053;SDS011;53960;51.826;5.850;2024-03-23T15:15:19;7.83;;;1.30;;
67053;SDS011;53960;51.826;5.850;2024-03-23T15:17:44;5.80;;;1.20;;
67053;SDS011;53960;51.826;5.850;2024-03-23T15:20:10;10.75;;;1.38;;
67053;SDS011;53960;51.826;5.850;2024-03-23T15:22:38;8.00;;;1.17;;
67053;SDS011;53960;51.826;5.850;2024-03-23T15:25:04;5.57;;;1.00;;
67053;SDS011;53960;51.826;5.850;2024-03-23T15:27:29;6.37;;;1.30;;
67053;SDS011;53960;51.826;5.850;2024-03-23T15:29:58;5.75;;;0.98;;
67053;SDS011;53960;51.826;5.850;2024-03-23T15:32:23;6.10;;;1.07;;
67053;SDS011;53960;51.826;5.850;2024-03-23T15:34:48;7.70;;;1.70;;
67053;SDS011;53960;51.826;5.850;2024-03-23T15:37:14;4.30;;;0.90;;
67053;SDS011;53960;51.826;5.850;2024-03-23T15:39:40;6.23;;;1.07;;